sensor_id;sensor_type;location;lat;lon;timestamp;temperature;humidity
20726;DHT22;10524;48.132;8.518;2023-12-29T00:00:48;4.60;99.90
20726;DHT22;10524;48.132;8.518;2023-12-29T00:03:13;4.70;99.90
20726;DHT22;10524;48.132;8.518;2023-12-29T00:05:39;4.70;99.90
20726;DHT22;10524;48.132;8.518;2023-12-29T00:08:05;4.70;99.90
20726;DHT22;10524;48.132;8.518;2023-12-29T00:10:31;4.60;99.90
20726;DHT22;10524;48.132;8.518;2023-12-29T00:12:57;4.50;99.90
20726;DHT22;10524;48.132;8.518;2023-12-29T00:15:22;4.40;99.90
20726;DHT22;10524;48.132;8.518;2023-12-29T00:17:48;4.20;99.90
20726;DHT22;10524;48.132;8.518;2023-12-29T00:20:14;4.20;99.90
20726;DHT22;10524;48.132;8.518;2023-12-29T00:22:40;4.10;99.90
20726;DHT22;10524;48.132;8.518;2023-12-29T00:25:06;4.10;99.90
20726;DHT22;10524;48.132;8.518;2023-12-29T00:27:43;4.20;99.90
20726;DHT22;10524;48.132;8.518;2023-12-29T00:30:10;4.30;99.90
20726;DHT22;10524;48.132;8.518;2023-12-29T00:32:36;4.30;99.90
20726;DHT22;10524;48.132;8.518;2023-12-29T00:35:01;4.40;99.90
20726;DHT22;10524;48.132;8.518;2023-12-29T00:37:27;4.40;99.90
20726;DHT22;10524;48.132;8.518;2023-12-29T00:39:53;4.50;99.90
20726;DHT22;10524;48.132;8.518;2023-12-29T00:42:19;4.60;99.90
20726;DHT22;10524;48.132;8.518;2023-12-29T00:44:44;4.70;99.90
20726;DHT22;10524;48.132;8.518;2023-12-29T00:47:10;4.80;99.90
20726;DHT22;10524;48.132;8.518;2023-12-29T00:49:39;4.80;99.90
20726;DHT22;10524;48.132;8.518;2023-12-29T00:52:05;4.80;99.90
20726;DHT22;10524;48.132;8.518;2023-12-29T00:54:31;4.80;99.90
20726;DHT22;10524;48.132;8.518;2023-12-29T00:56:57;4.90;99.90
20726;DHT22;10524;48.132;8.518;2023-12-29T00:59:22;4.90;99.90
20726;DHT22;10524;48.132;8.518;2023-12-29T01:01:48;4.90;99.90
20726;DHT22;10524;48.132;8.518;2023-12-29T01:04:14;4.90;99.90
20726;DHT22;10524;48.132;8.518;2023-12-29T01:06:39;4.90;99.90
20726;DHT22;10524;48.132;8.518;2023-12-29T01:09:06;4.90;99.90
20726;DHT22;10524;48.132;8.518;2023-12-29T01:11:34;4.90;99.90
20726;DHT22;10524;48.132;8.518;2023-12-29T01:13:59;4.90;99.90
20726;DHT22;10524;48.132;8.518;2023-12-29T01:16:25;4.90;99.90
20726;DHT22;10524;48.132;8.518;2023-12-29T01:18:51;4.80;99.90
20726;DHT22;10524;48.132;8.518;2023-12-29T01:21:16;4.80;99.90
20726;DHT22;10524;48.132;8.518;2023-12-29T01:23:42;4.80;99.90
20726;DHT22;10524;48.132;8.518;2023-12-29T01:26:08;4.80;99.90
20726;DHT22;10524;48.132;8.518;2023-12-29T01:28:34;4.80;99.90
20726;DHT22;10524;48.132;8.518;2023-12-29T01:31:00;4.80;99.90
20726;DHT22;10524;48.132;8.518;2023-12-29T01:33:26;4.80;99.90
20726;DHT22;10524;48.132;8.518;2023-12-29T01:35:51;4.70;99.90
20726;DHT22;10524;48.132;8.518;2023-12-29T01:38:17;4.70;99.90
20726;DHT22;10524;48.132;8.518;2023-12-29T01:40:46;4.70;99.90
20726;DHT22;10524;48.132;8.518;2023-12-29T01:43:13;4.70;99.90
20726;DHT22;10524;48.132;8.518;2023-12-29T01:45:39;4.70;99.90
20726;DHT22;10524;48.132;8.518;2023-12-29T01:48:05;4.70;99.90
20726;DHT22;10524;48.132;8.518;2023-12-29T01:50:31;4.60;99.90
20726;DHT22;10524;48.132;8.518;2023-12-29T01:52:58;4.60;99.90
20726;DHT22;10524;48.132;8.518;2023-12-29T01:55:26;4.60;99.90
20726;DHT22;10524;48.132;8.518;2023-12-29T01:57:52;4.60;99.90
20726;DHT22;10524;48.132;8.518;2023-12-29T02:00:18;4.50;99.90
20726;DHT22;10524;48.132;8.518;2023-12-29T02:02:46;4.60;99.90
20726;DHT22;10524;48.132;8.518;2023-12-29T02:05:17;4.60;99.90
20726;DHT22;10524;48.132;8.518;2023-12-29T02:07:43;4.60;99.90
20726;DHT22;10524;48.132;8.518;2023-12-29T02:10:09;4.50;99.90
20726;DHT22;10524;48.132;8.518;2023-12-29T02:12:41;4.60;99.90
20726;DHT22;10524;48.132;8.518;2023-12-29T02:15:07;4.70;99.90
20726;DHT22;10524;48.132;8.518;2023-12-29T02:17:40;4.70;99.90
20726;DHT22;10524;48.132;8.518;2023-12-29T02:20:08;4.70;99.90
20726;DHT22;10524;48.132;8.518;2023-12-29T02:22:34;4.70;99.90
20726;DHT22;10524;48.132;8.518;2023-12-29T02:25:00;4.80;99.90
20726;DHT22;10524;48.132;8.518;2023-12-29T02:30:20;4.90;99.90
20726;DHT22;10524;48.132;8.518;2023-12-29T02:32:48;5.00;99.90
20726;DHT22;10524;48.132;8.518;2023-12-29T02:35:19;5.00;99.90
20726;DHT22;10524;48.132;8.518;2023-12-29T02:37:46;5.10;99.90
20726;DHT22;10524;48.132;8.518;2023-12-29T02:40:14;5.20;99.90
20726;DHT22;10524;48.132;8.518;2023-12-29T02:42:45;5.20;99.90
20726;DHT22;10524;48.132;8.518;2023-12-29T02:45:11;5.20;99.90
20726;DHT22;10524;48.132;8.518;2023-12-29T02:47:37;5.30;99.90
20726;DHT22;10524;48.132;8.518;2023-12-29T02:50:03;5.30;99.90
20726;DHT22;10524;48.132;8.518;2023-12-29T02:52:29;5.30;99.90
20726;DHT22;10524;48.132;8.518;2023-12-29T02:54:55;5.30;99.90
20726;DHT22;10524;48.132;8.518;2023-12-29T02:57:21;5.30;99.90
20726;DHT22;10524;48.132;8.518;2023-12-29T02:59:47;5.30;99.90
20726;DHT22;10524;48.132;8.518;2023-12-29T03:02:12;5.30;99.90
20726;DHT22;10524;48.132;8.518;2023-12-29T03:04:38;5.30;99.90
20726;DHT22;10524;48.132;8.518;2023-12-29T03:07:04;5.30;99.90
20726;DHT22;10524;48.132;8.518;2023-12-29T03:09:29;5.40;99.90
20726;DHT22;10524;48.132;8.518;2023-12-29T03:11:55;5.40;99.90
20726;DHT22;10524;48.132;8.518;2023-12-29T03:14:21;5.40;99.90
20726;DHT22;10524;48.132;8.518;2023-12-29T03:16:47;5.40;99.90
20726;DHT22;10524;48.132;8.518;2023-12-29T03:19:12;5.40;99.90
20726;DHT22;10524;48.132;8.518;2023-12-29T03:21:38;5.50;99.90
20726;DHT22;10524;48.132;8.518;2023-12-29T03:24:04;5.50;99.90
20726;DHT22;10524;48.132;8.518;2023-12-29T03:26:30;5.50;99.90
20726;DHT22;10524;48.132;8.518;2023-12-29T03:28:56;5.50;99.90
20726;DHT22;10524;48.132;8.518;2023-12-29T03:31:21;5.50;99.90
20726;DHT22;10524;48.132;8.518;2023-12-29T03:33:47;5.60;99.90
20726;DHT22;10524;48.132;8.518;2023-12-29T03:36:13;5.60;99.90
20726;DHT22;10524;48.132;8.518;2023-12-29T03:38:40;5.70;99.90
20726;DHT22;10524;48.132;8.518;2023-12-29T03:41:06;5.70;99.90
20726;DHT22;10524;48.132;8.518;2023-12-29T03:43:32;5.70;99.90
20726;DHT22;10524;48.132;8.518;2023-12-29T03:45:57;5.70;99.90
20726;DHT22;10524;48.132;8.518;2023-12-29T03:48:24;5.70;99.90
20726;DHT22;10524;48.132;8.518;2023-12-29T03:50:50;5.80;99.90
20726;DHT22;10524;48.132;8.518;2023-12-29T03:53:15;5.90;99.90
20726;DHT22;10524;48.132;8.518;2023-12-29T03:55:42;5.90;99.90
20726;DHT22;10524;48.132;8.518;2023-12-29T03:58:07;5.90;99.90
20726;DHT22;10524;48.132;8.518;2023-12-29T04:00:33;5.90;99.90
20726;DHT22;10524;48.132;8.518;2023-12-29T04:03:00;5.90;99.90
20726;DHT22;10524;48.132;8.518;2023-12-29T04:05:26;6.00;99.90
20726;DHT22;10524;48.132;8.518;2023-12-29T04:07:52;6.10;99.90
20726;DHT22;10524;48.132;8.518;2023-12-29T04:10:18;6.10;99.90
20726;DHT22;10524;48.132;8.518;2023-12-29T04:12:43;6.20;99.90
20726;DHT22;10524;48.132;8.518;2023-12-29T04:15:11;6.20;99.90
20726;DHT22;10524;48.132;8.518;2023-12-29T04:17:36;6.20;99.90
20726;DHT22;10524;48.132;8.518;2023-12-29T04:20:03;6.20;99.90
20726;DHT22;10524;48.132;8.518;2023-12-29T04:22:28;6.20;99.90
20726;DHT22;10524;48.132;8.518;2023-12-29T04:24:54;6.20;99.90
20726;DHT22;10524;48.132;8.518;2023-12-29T04:27:21;6.20;99.90
20726;DHT22;10524;48.132;8.518;2023-12-29T04:29:47;6.30;99.90
20726;DHT22;10524;48.132;8.518;2023-12-29T04:32:14;6.30;99.90
20726;DHT22;10524;48.132;8.518;2023-12-29T04:34:41;6.40;99.90
20726;DHT22;10524;48.132;8.518;2023-12-29T04:37:07;6.40;99.90
20726;DHT22;10524;48.132;8.518;2023-12-29T04:39:33;6.50;99.90
20726;DHT22;10524;48.132;8.518;2023-12-29T04:41:59;6.40;99.90
20726;DHT22;10524;48.132;8.518;2023-12-29T04:44:25;6.50;99.90
20726;DHT22;10524;48.132;8.518;2023-12-29T04:46:50;6.50;99.90
20726;DHT22;10524;48.132;8.518;2023-12-29T04:49:16;6.50;99.90
20726;DHT22;10524;48.132;8.518;2023-12-29T04:51:42;6.50;99.90
20726;DHT22;10524;48.132;8.518;2023-12-29T04:54:08;6.50;99.90
20726;DHT22;10524;48.132;8.518;2023-12-29T04:56:34;6.50;99.90
20726;DHT22;10524;48.132;8.518;2023-12-29T04:59:00;6.50;99.90
20726;DHT22;10524;48.132;8.518;2023-12-29T05:01:25;6.50;99.90
20726;DHT22;10524;48.132;8.518;2023-12-29T05:03:51;6.50;99.90
20726;DHT22;10524;48.132;8.518;2023-12-29T05:06:17;6.50;99.90
20726;DHT22;10524;48.132;8.518;2023-12-29T05:08:43;6.50;99.90
20726;DHT22;10524;48.132;8.518;2023-12-29T05:11:08;6.60;99.90
20726;DHT22;10524;48.132;8.518;2023-12-29T05:13:34;6.50;99.90
20726;DHT22;10524;48.132;8.518;2023-12-29T05:16:00;6.60;99.90
20726;DHT22;10524;48.132;8.518;2023-12-29T05:18:26;6.70;99.90
20726;DHT22;10524;48.132;8.518;2023-12-29T05:20:55;6.70;99.90
20726;DHT22;10524;48.132;8.518;2023-12-29T05:23:20;6.70;99.90
20726;DHT22;10524;48.132;8.518;2023-12-29T05:25:46;6.70;99.90
20726;DHT22;10524;48.132;8.518;2023-12-29T05:28:12;6.70;99.90
20726;DHT22;10524;48.132;8.518;2023-12-29T05:30:38;6.70;99.90
20726;DHT22;10524;48.132;8.518;2023-12-29T05:33:04;6.70;99.90
20726;DHT22;10524;48.132;8.518;2023-12-29T05:35:29;6.70;99.90
20726;DHT22;10524;48.132;8.518;2023-12-29T05:37:55;6.60;99.90
20726;DHT22;10524;48.132;8.518;2023-12-29T05:40:21;6.60;99.90
20726;DHT22;10524;48.132;8.518;2023-12-29T05:42:46;6.50;99.90
20726;DHT22;10524;48.132;8.518;2023-12-29T05:45:12;6.30;99.90
20726;DHT22;10524;48.132;8.518;2023-12-29T05:47:38;6.20;99.90
20726;DHT22;10524;48.132;8.518;2023-12-29T05:50:04;6.20;99.90
20726;DHT22;10524;48.132;8.518;2023-12-29T05:52:30;6.30;99.90
20726;DHT22;10524;48.132;8.518;2023-12-29T05:54:55;6.30;99.90
20726;DHT22;10524;48.132;8.518;2023-12-29T05:57:21;6.30;99.90
20726;DHT22;10524;48.132;8.518;2023-12-29T05:59:47;6.30;99.90
20726;DHT22;10524;48.132;8.518;2023-12-29T06:02:12;6.30;99.90
20726;DHT22;10524;48.132;8.518;2023-12-29T06:04:38;6.30;99.90
20726;DHT22;10524;48.132;8.518;2023-12-29T06:07:04;6.20;99.90
20726;DHT22;10524;48.132;8.518;2023-12-29T06:09:30;6.20;99.90
20726;DHT22;10524;48.132;8.518;2023-12-29T06:11:55;6.30;99.90
20726;DHT22;10524;48.132;8.518;2023-12-29T06:14:21;6.30;99.90
20726;DHT22;10524;48.132;8.518;2023-12-29T06:16:47;6.40;99.90
20726;DHT22;10524;48.132;8.518;2023-12-29T06:19:13;6.40;99.90
20726;DHT22;10524;48.132;8.518;2023-12-29T06:21:43;6.40;99.90
20726;DHT22;10524;48.132;8.518;2023-12-29T06:24:09;6.50;99.90
20726;DHT22;10524;48.132;8.518;2023-12-29T06:26:35;6.50;99.90
20726;DHT22;10524;48.132;8.518;2023-12-29T06:29:01;6.60;99.90
20726;DHT22;10524;48.132;8.518;2023-12-29T06:31:26;6.70;99.90
20726;DHT22;10524;48.132;8.518;2023-12-29T06:33:52;6.70;99.90
20726;DHT22;10524;48.132;8.518;2023-12-29T06:36:18;6.80;99.90
20726;DHT22;10524;48.132;8.518;2023-12-29T06:38:44;6.80;99.90
20726;DHT22;10524;48.132;8.518;2023-12-29T06:41:14;6.80;99.90
20726;DHT22;10524;48.132;8.518;2023-12-29T06:43:39;6.80;99.90
20726;DHT22;10524;48.132;8.518;2023-12-29T06:46:05;6.80;99.90
20726;DHT22;10524;48.132;8.518;2023-12-29T06:48:31;6.70;99.90
20726;DHT22;10524;48.132;8.518;2023-12-29T06:50:57;6.80;99.90
20726;DHT22;10524;48.132;8.518;2023-12-29T06:53:23;6.80;99.90
20726;DHT22;10524;48.132;8.518;2023-12-29T06:55:48;6.80;99.90
20726;DHT22;10524;48.132;8.518;2023-12-29T06:58:14;6.70;99.90
20726;DHT22;10524;48.132;8.518;2023-12-29T07:00:40;6.70;99.90
20726;DHT22;10524;48.132;8.518;2023-12-29T07:03:06;6.80;99.90
20726;DHT22;10524;48.132;8.518;2023-12-29T07:05:31;6.80;99.90
20726;DHT22;10524;48.132;8.518;2023-12-29T07:07:57;6.80;99.90
20726;DHT22;10524;48.132;8.518;2023-12-29T07:10:23;6.80;99.90
20726;DHT22;10524;48.132;8.518;2023-12-29T07:12:49;6.80;99.90
20726;DHT22;10524;48.132;8.518;2023-12-29T07:15:14;6.80;99.90
20726;DHT22;10524;48.132;8.518;2023-12-29T07:17:40;6.80;99.90
20726;DHT22;10524;48.132;8.518;2023-12-29T07:20:07;6.80;99.90
20726;DHT22;10524;48.132;8.518;2023-12-29T07:22:33;6.90;99.90
20726;DHT22;10524;48.132;8.518;2023-12-29T07:24:59;6.90;99.90
20726;DHT22;10524;48.132;8.518;2023-12-29T07:27:24;6.90;99.90
20726;DHT22;10524;48.132;8.518;2023-12-29T07:29:50;7.00;99.90
20726;DHT22;10524;48.132;8.518;2023-12-29T07:32:15;7.00;99.90
20726;DHT22;10524;48.132;8.518;2023-12-29T07:34:41;6.90;99.90
20726;DHT22;10524;48.132;8.518;2023-12-29T07:37:07;6.90;99.90
20726;DHT22;10524;48.132;8.518;2023-12-29T07:39:36;6.80;99.90
20726;DHT22;10524;48.132;8.518;2023-12-29T07:42:02;6.70;99.90
20726;DHT22;10524;48.132;8.518;2023-12-29T07:44:31;6.70;99.90
20726;DHT22;10524;48.132;8.518;2023-12-29T07:47:05;6.70;99.90
20726;DHT22;10524;48.132;8.518;2023-12-29T07:49:31;6.70;99.90
20726;DHT22;10524;48.132;8.518;2023-12-29T07:51:57;6.70;99.90
20726;DHT22;10524;48.132;8.518;2023-12-29T07:54:25;6.70;99.90
20726;DHT22;10524;48.132;8.518;2023-12-29T07:56:50;6.70;99.90
20726;DHT22;10524;48.132;8.518;2023-12-29T07:59:16;6.70;99.90
20726;DHT22;10524;48.132;8.518;2023-12-29T08:01:42;6.70;99.90
20726;DHT22;10524;48.132;8.518;2023-12-29T08:04:07;6.80;99.90
20726;DHT22;10524;48.132;8.518;2023-12-29T08:06:33;6.80;99.90
20726;DHT22;10524;48.132;8.518;2023-12-29T08:08:59;6.80;99.90
20726;DHT22;10524;48.132;8.518;2023-12-29T08:11:25;6.80;99.90
20726;DHT22;10524;48.132;8.518;2023-12-29T08:13:51;6.80;99.90
20726;DHT22;10524;48.132;8.518;2023-12-29T08:16:17;6.80;99.90
20726;DHT22;10524;48.132;8.518;2023-12-29T08:18:43;6.90;99.90
20726;DHT22;10524;48.132;8.518;2023-12-29T08:21:16;7.00;99.90
20726;DHT22;10524;48.132;8.518;2023-12-29T08:23:42;7.10;99.90
20726;DHT22;10524;48.132;8.518;2023-12-29T08:26:07;7.10;99.90
20726;DHT22;10524;48.132;8.518;2023-12-29T08:28:33;7.30;99.90
20726;DHT22;10524;48.132;8.518;2023-12-29T08:30:59;7.30;99.90
20726;DHT22;10524;48.132;8.518;2023-12-29T08:33:24;7.30;99.90
20726;DHT22;10524;48.132;8.518;2023-12-29T08:35:50;7.30;99.90
20726;DHT22;10524;48.132;8.518;2023-12-29T08:38:16;7.40;99.90
20726;DHT22;10524;48.132;8.518;2023-12-29T08:40:42;7.40;99.90
20726;DHT22;10524;48.132;8.518;2023-12-29T08:43:07;7.40;99.90
20726;DHT22;10524;48.132;8.518;2023-12-29T08:45:33;7.40;99.90
20726;DHT22;10524;48.132;8.518;2023-12-29T08:47:59;7.50;99.90
20726;DHT22;10524;48.132;8.518;2023-12-29T08:50:25;7.60;99.90
20726;DHT22;10524;48.132;8.518;2023-12-29T08:52:50;7.60;99.90
20726;DHT22;10524;48.132;8.518;2023-12-29T08:55:16;7.60;99.90
20726;DHT22;10524;48.132;8.518;2023-12-29T08:57:42;7.70;99.90
20726;DHT22;10524;48.132;8.518;2023-12-29T09:00:08;7.80;99.90
20726;DHT22;10524;48.132;8.518;2023-12-29T09:02:35;7.90;99.90
20726;DHT22;10524;48.132;8.518;2023-12-29T09:05:00;8.10;99.90
20726;DHT22;10524;48.132;8.518;2023-12-29T09:07:26;8.30;99.90
20726;DHT22;10524;48.132;8.518;2023-12-29T09:09:53;8.50;99.90
20726;DHT22;10524;48.132;8.518;2023-12-29T09:12:19;8.70;99.90
20726;DHT22;10524;48.132;8.518;2023-12-29T09:14:45;8.80;99.90
20726;DHT22;10524;48.132;8.518;2023-12-29T09:17:11;8.90;99.90
20726;DHT22;10524;48.132;8.518;2023-12-29T09:19:36;9.00;99.90
20726;DHT22;10524;48.132;8.518;2023-12-29T09:22:02;9.10;99.90
20726;DHT22;10524;48.132;8.518;2023-12-29T09:24:28;9.20;99.90
20726;DHT22;10524;48.132;8.518;2023-12-29T09:26:54;9.40;99.90
20726;DHT22;10524;48.132;8.518;2023-12-29T09:29:20;9.80;99.90
20726;DHT22;10524;48.132;8.518;2023-12-29T09:31:46;10.00;99.90
20726;DHT22;10524;48.132;8.518;2023-12-29T09:34:12;10.30;99.90
20726;DHT22;10524;48.132;8.518;2023-12-29T09:36:38;10.40;99.90
20726;DHT22;10524;48.132;8.518;2023-12-29T09:39:03;10.40;99.90
20726;DHT22;10524;48.132;8.518;2023-12-29T09:41:31;10.50;99.90
20726;DHT22;10524;48.132;8.518;2023-12-29T09:44:01;10.90;99.90
20726;DHT22;10524;48.132;8.518;2023-12-29T09:46:28;11.00;99.90
20726;DHT22;10524;48.132;8.518;2023-12-29T09:48:58;10.80;99.90
20726;DHT22;10524;48.132;8.518;2023-12-29T09:51:28;10.70;99.90
20726;DHT22;10524;48.132;8.518;2023-12-29T09:53:55;10.50;99.90
20726;DHT22;10524;48.132;8.518;2023-12-29T09:56:24;10.30;99.90
20726;DHT22;10524;48.132;8.518;2023-12-29T09:58:51;10.20;99.90
20726;DHT22;10524;48.132;8.518;2023-12-29T10:01:18;10.00;99.90
20726;DHT22;10524;48.132;8.518;2023-12-29T10:03:47;9.80;99.90
20726;DHT22;10524;48.132;8.518;2023-12-29T10:06:13;9.70;99.90
20726;DHT22;10524;48.132;8.518;2023-12-29T10:08:45;9.80;99.90
20726;DHT22;10524;48.132;8.518;2023-12-29T10:11:14;9.90;99.90
20726;DHT22;10524;48.132;8.518;2023-12-29T10:13:42;9.60;99.90
20726;DHT22;10524;48.132;8.518;2023-12-29T10:16:38;9.40;99.90
20726;DHT22;10524;48.132;8.518;2023-12-29T10:19:30;9.30;99.90
20726;DHT22;10524;48.132;8.518;2023-12-29T10:22:15;9.20;99.90
20726;DHT22;10524;48.132;8.518;2023-12-29T10:24:44;9.10;99.90
20726;DHT22;10524;48.132;8.518;2023-12-29T10:27:13;9.00;99.90
20726;DHT22;10524;48.132;8.518;2023-12-29T10:29:38;8.90;99.90
20726;DHT22;10524;48.132;8.518;2023-12-29T10:32:06;8.80;99.90
20726;DHT22;10524;48.132;8.518;2023-12-29T10:34:31;8.70;99.90
20726;DHT22;10524;48.132;8.518;2023-12-29T10:37:01;8.70;99.90
20726;DHT22;10524;48.132;8.518;2023-12-29T10:39:29;8.70;99.90
20726;DHT22;10524;48.132;8.518;2023-12-29T10:42:06;8.70;99.90
20726;DHT22;10524;48.132;8.518;2023-12-29T10:44:36;8.70;99.90
20726;DHT22;10524;48.132;8.518;2023-12-29T10:47:12;8.70;99.90
20726;DHT22;10524;48.132;8.518;2023-12-29T10:49:41;8.80;99.90
20726;DHT22;10524;48.132;8.518;2023-12-29T10:52:14;8.70;99.90
20726;DHT22;10524;48.132;8.518;2023-12-29T10:54:43;8.70;99.90
20726;DHT22;10524;48.132;8.518;2023-12-29T10:57:12;8.70;99.90
20726;DHT22;10524;48.132;8.518;2023-12-29T10:59:39;8.70;99.90
20726;DHT22;10524;48.132;8.518;2023-12-29T11:02:05;8.60;99.90
20726;DHT22;10524;48.132;8.518;2023-12-29T11:04:34;8.70;99.90
20726;DHT22;10524;48.132;8.518;2023-12-29T11:07:00;8.70;99.90
20726;DHT22;10524;48.132;8.518;2023-12-29T11:09:29;8.80;99.90
20726;DHT22;10524;48.132;8.518;2023-12-29T11:12:00;8.90;99.90
20726;DHT22;10524;48.132;8.518;2023-12-29T11:14:26;9.00;99.90
20726;DHT22;10524;48.132;8.518;2023-12-29T11:16:54;9.00;99.90
20726;DHT22;10524;48.132;8.518;2023-12-29T11:19:21;9.20;99.90
20726;DHT22;10524;48.132;8.518;2023-12-29T11:21:49;9.70;99.90
20726;DHT22;10524;48.132;8.518;2023-12-29T11:24:18;10.00;99.90
20726;DHT22;10524;48.132;8.518;2023-12-29T11:26:44;10.10;99.90
20726;DHT22;10524;48.132;8.518;2023-12-29T11:29:11;10.30;99.90
20726;DHT22;10524;48.132;8.518;2023-12-29T11:31:40;11.40;99.90
20726;DHT22;10524;48.132;8.518;2023-12-29T11:34:21;12.60;99.90
20726;DHT22;10524;48.132;8.518;2023-12-29T11:36:50;13.30;99.90
20726;DHT22;10524;48.132;8.518;2023-12-29T11:39:18;12.80;99.90
20726;DHT22;10524;48.132;8.518;2023-12-29T11:44:25;11.30;99.90
20726;DHT22;10524;48.132;8.518;2023-12-29T11:46:56;10.80;99.90
20726;DHT22;10524;48.132;8.518;2023-12-29T11:49:23;10.40;99.90
20726;DHT22;10524;48.132;8.518;2023-12-29T11:51:50;10.10;99.90
20726;DHT22;10524;48.132;8.518;2023-12-29T11:54:23;9.90;99.90
20726;DHT22;10524;48.132;8.518;2023-12-29T11:56:50;9.80;99.90
20726;DHT22;10524;48.132;8.518;2023-12-29T11:59:20;9.90;99.90
20726;DHT22;10524;48.132;8.518;2023-12-29T12:01:57;10.40;99.90
20726;DHT22;10524;48.132;8.518;2023-12-29T12:09:50;12.40;99.90
20726;DHT22;10524;48.132;8.518;2023-12-29T12:12:40;13.30;99.90
20726;DHT22;10524;48.132;8.518;2023-12-29T12:17:58;13.70;99.90
20726;DHT22;10524;48.132;8.518;2023-12-29T12:20:24;14.30;99.90
20726;DHT22;10524;48.132;8.518;2023-12-29T12:23:00;13.80;99.90
20726;DHT22;10524;48.132;8.518;2023-12-29T12:25:29;14.60;99.90
20726;DHT22;10524;48.132;8.518;2023-12-29T12:27:58;14.50;99.90
20726;DHT22;10524;48.132;8.518;2023-12-29T12:30:24;14.30;99.90
20726;DHT22;10524;48.132;8.518;2023-12-29T12:32:59;13.70;99.90
20726;DHT22;10524;48.132;8.518;2023-12-29T12:35:26;12.50;99.90
20726;DHT22;10524;48.132;8.518;2023-12-29T12:38:13;12.80;99.90
20726;DHT22;10524;48.132;8.518;2023-12-29T12:40:39;14.10;99.90
20726;DHT22;10524;48.132;8.518;2023-12-29T12:43:05;15.20;99.90
20726;DHT22;10524;48.132;8.518;2023-12-29T12:45:42;14.80;99.90
20726;DHT22;10524;48.132;8.518;2023-12-29T12:48:22;15.00;99.90
20726;DHT22;10524;48.132;8.518;2023-12-29T12:50:49;14.30;99.90
20726;DHT22;10524;48.132;8.518;2023-12-29T12:53:15;12.30;99.90
20726;DHT22;10524;48.132;8.518;2023-12-29T12:55:50;11.40;99.90
20726;DHT22;10524;48.132;8.518;2023-12-29T12:58:19;10.80;99.90
20726;DHT22;10524;48.132;8.518;2023-12-29T13:00:48;10.60;99.90
20726;DHT22;10524;48.132;8.518;2023-12-29T13:03:15;10.40;99.90
20726;DHT22;10524;48.132;8.518;2023-12-29T13:05:41;10.30;99.90
20726;DHT22;10524;48.132;8.518;2023-12-29T13:08:08;10.20;99.90
20726;DHT22;10524;48.132;8.518;2023-12-29T13:10:40;10.20;99.90
20726;DHT22;10524;48.132;8.518;2023-12-29T13:13:06;10.20;99.90
20726;DHT22;10524;48.132;8.518;2023-12-29T13:15:32;10.20;99.90
20726;DHT22;10524;48.132;8.518;2023-12-29T13:17:58;10.20;99.90
20726;DHT22;10524;48.132;8.518;2023-12-29T13:20:24;10.20;99.90
20726;DHT22;10524;48.132;8.518;2023-12-29T13:22:50;10.20;99.90
20726;DHT22;10524;48.132;8.518;2023-12-29T13:25:20;10.20;99.90
20726;DHT22;10524;48.132;8.518;2023-12-29T13:27:49;10.40;99.90
20726;DHT22;10524;48.132;8.518;2023-12-29T13:30:16;10.40;99.90
20726;DHT22;10524;48.132;8.518;2023-12-29T13:32:44;10.50;99.90
20726;DHT22;10524;48.132;8.518;2023-12-29T13:35:21;10.50;99.90
20726;DHT22;10524;48.132;8.518;2023-12-29T13:38:10;10.50;99.90
20726;DHT22;10524;48.132;8.518;2023-12-29T13:43:11;10.60;99.90
20726;DHT22;10524;48.132;8.518;2023-12-29T13:45:39;10.50;99.90
20726;DHT22;10524;48.132;8.518;2023-12-29T13:48:06;10.30;99.90
20726;DHT22;10524;48.132;8.518;2023-12-29T13:50:33;10.30;99.90
20726;DHT22;10524;48.132;8.518;2023-12-29T13:52:59;10.10;99.90
20726;DHT22;10524;48.132;8.518;2023-12-29T13:55:25;10.10;99.90
20726;DHT22;10524;48.132;8.518;2023-12-29T13:57:52;10.10;99.90
20726;DHT22;10524;48.132;8.518;2023-12-29T14:00:21;10.10;99.90
20726;DHT22;10524;48.132;8.518;2023-12-29T14:02:57;10.10;99.90
20726;DHT22;10524;48.132;8.518;2023-12-29T14:05:24;10.00;99.90
20726;DHT22;10524;48.132;8.518;2023-12-29T14:07:59;10.10;99.90
20726;DHT22;10524;48.132;8.518;2023-12-29T14:10:33;10.00;99.90
20726;DHT22;10524;48.132;8.518;2023-12-29T14:13:07;9.90;99.90
20726;DHT22;10524;48.132;8.518;2023-12-29T14:15:40;9.70;99.90
20726;DHT22;10524;48.132;8.518;2023-12-29T14:20:44;9.50;99.90
20726;DHT22;10524;48.132;8.518;2023-12-29T14:23:10;9.50;99.90
20726;DHT22;10524;48.132;8.518;2023-12-29T14:25:36;9.40;99.90
20726;DHT22;10524;48.132;8.518;2023-12-29T14:28:23;9.40;99.90
20726;DHT22;10524;48.132;8.518;2023-12-29T14:30:49;9.30;99.90
20726;DHT22;10524;48.132;8.518;2023-12-29T14:33:15;9.20;99.90
20726;DHT22;10524;48.132;8.518;2023-12-29T14:35:41;9.20;99.90
20726;DHT22;10524;48.132;8.518;2023-12-29T14:38:07;9.20;99.90
20726;DHT22;10524;48.132;8.518;2023-12-29T14:40:33;9.10;99.90
20726;DHT22;10524;48.132;8.518;2023-12-29T14:43:02;9.00;99.90
20726;DHT22;10524;48.132;8.518;2023-12-29T14:45:28;8.90;99.90
20726;DHT22;10524;48.132;8.518;2023-12-29T14:48:00;8.90;99.90
20726;DHT22;10524;48.132;8.518;2023-12-29T14:50:26;8.80;99.90
20726;DHT22;10524;48.132;8.518;2023-12-29T14:52:51;8.70;99.90
20726;DHT22;10524;48.132;8.518;2023-12-29T14:55:17;8.70;99.90
20726;DHT22;10524;48.132;8.518;2023-12-29T14:57:46;8.70;99.90
20726;DHT22;10524;48.132;8.518;2023-12-29T15:00:12;8.70;99.90
20726;DHT22;10524;48.132;8.518;2023-12-29T15:02:38;8.60;99.90
20726;DHT22;10524;48.132;8.518;2023-12-29T15:05:04;8.60;99.90
20726;DHT22;10524;48.132;8.518;2023-12-29T15:07:29;8.50;99.90
20726;DHT22;10524;48.132;8.518;2023-12-29T15:09:56;8.50;99.90
20726;DHT22;10524;48.132;8.518;2023-12-29T15:12:23;8.50;99.90
20726;DHT22;10524;48.132;8.518;2023-12-29T15:14:48;8.50;99.90
20726;DHT22;10524;48.132;8.518;2023-12-29T15:17:14;8.50;99.90
20726;DHT22;10524;48.132;8.518;2023-12-29T15:19:40;8.40;99.90
20726;DHT22;10524;48.132;8.518;2023-12-29T15:22:05;8.30;99.90
20726;DHT22;10524;48.132;8.518;2023-12-29T15:24:32;8.30;99.90
20726;DHT22;10524;48.132;8.518;2023-12-29T15:26:57;8.20;99.90
20726;DHT22;10524;48.132;8.518;2023-12-29T15:29:23;8.20;99.90
20726;DHT22;10524;48.132;8.518;2023-12-29T15:31:49;8.30;99.90
20726;DHT22;10524;48.132;8.518;2023-12-29T15:34:15;8.30;99.90
20726;DHT22;10524;48.132;8.518;2023-12-29T15:36:41;8.30;99.90
20726;DHT22;10524;48.132;8.518;2023-12-29T15:39:06;8.40;99.90
20726;DHT22;10524;48.132;8.518;2023-12-29T15:41:34;8.40;99.90
20726;DHT22;10524;48.132;8.518;2023-12-29T15:44:00;8.40;99.90
20726;DHT22;10524;48.132;8.518;2023-12-29T15:46:25;8.30;99.90
20726;DHT22;10524;48.132;8.518;2023-12-29T15:48:51;8.40;99.90
20726;DHT22;10524;48.132;8.518;2023-12-29T15:51:17;8.30;99.90
20726;DHT22;10524;48.132;8.518;2023-12-29T15:53:43;8.20;99.90
20726;DHT22;10524;48.132;8.518;2023-12-29T15:56:19;8.20;99.90
20726;DHT22;10524;48.132;8.518;2023-12-29T15:58:48;8.20;99.90
20726;DHT22;10524;48.132;8.518;2023-12-29T16:01:24;8.20;99.90